createdAt,value
2023-05-13T00:01:01.828Z,14.60
2023-05-13T00:03:29.194Z,14.50
2023-05-13T00:05:56.762Z,14.50
2023-05-13T00:08:23.705Z,14.40
2023-05-13T00:10:50.753Z,14.30
2023-05-13T00:13:17.967Z,14.40
2023-05-13T00:15:46.172Z,14.30
2023-05-13T00:18:13.086Z,14.20
2023-05-13T00:20:40.201Z,14.20
2023-05-13T00:23:07.810Z,14.30
2023-05-13T00:25:35.073Z,14.20
2023-05-13T00:28:01.903Z,14.10
2023-05-13T00:30:29.144Z,14.10
2023-05-13T00:32:57.348Z,14.10
2023-05-13T00:35:24.289Z,14.10
2023-05-13T00:37:51.405Z,14.00
2023-05-13T00:40:22.105Z,14.00
2023-05-13T00:42:49.802Z,13.90
2023-05-13T00:45:17.666Z,13.90
2023-05-13T00:47:45.040Z,14.00
2023-05-13T00:50:14.726Z,14.00
2023-05-13T00:52:42.688Z,14.00
2023-05-13T00:55:10.820Z,14.00
2023-05-13T00:57:39.135Z,14.00
2023-05-13T01:00:11.292Z,14.00
2023-05-13T01:02:45.255Z,14.00
2023-05-13T01:05:25.618Z,14.00
2023-05-13T01:08:00.559Z,13.90
2023-05-13T01:10:36.054Z,13.70
2023-05-13T01:13:09.490Z,13.60
2023-05-13T01:15:42.349Z,13.60
2023-05-13T01:18:12.081Z,13.50
2023-05-13T01:20:43.103Z,13.50
2023-05-13T01:23:11.795Z,13.60
2023-05-13T01:25:40.157Z,13.60
2023-05-13T01:28:07.740Z,13.60
2023-05-13T01:30:35.965Z,13.60
2023-05-13T01:33:03.273Z,13.60
2023-05-13T01:35:31.918Z,13.60
2023-05-13T01:38:00.936Z,13.60
2023-05-13T01:40:32.931Z,13.60
2023-05-13T01:43:00.914Z,13.60
2023-05-13T01:45:28.687Z,13.60
2023-05-13T01:47:56.300Z,13.50
2023-05-13T01:50:23.462Z,13.50
2023-05-13T01:52:50.773Z,13.50
2023-05-13T01:55:17.652Z,13.50
2023-05-13T01:57:46.062Z,13.50
2023-05-13T02:00:13.942Z,13.50
2023-05-13T02:02:41.183Z,13.50
2023-05-13T02:05:08.922Z,13.50
2023-05-13T02:07:36.108Z,13.60
2023-05-13T02:10:03.059Z,13.40
2023-05-13T02:12:30.225Z,13.40
2023-05-13T02:14:58.364Z,13.40
2023-05-13T02:17:25.600Z,13.40
2023-05-13T02:19:52.598Z,13.40
2023-05-13T02:22:19.401Z,13.40
2023-05-13T02:24:46.582Z,13.30
2023-05-13T02:27:16.147Z,13.30
2023-05-13T02:29:43.470Z,13.20
2023-05-13T02:32:11.792Z,13.10
2023-05-13T02:34:39.149Z,13.00
2023-05-13T02:37:06.028Z,12.90
2023-05-13T02:39:33.235Z,12.90
2023-05-13T02:42:00.174Z,12.80
2023-05-13T02:44:27.358Z,12.80
2023-05-13T02:46:54.191Z,12.80
2023-05-13T02:49:22.695Z,12.80
2023-05-13T02:51:49.560Z,12.80
2023-05-13T02:54:16.759Z,12.70
2023-05-13T02:56:43.530Z,12.70
2023-05-13T02:59:11.494Z,12.60
2023-05-13T03:01:38.393Z,12.60
2023-05-13T03:04:05.751Z,12.50
2023-05-13T03:06:34.013Z,12.50
2023-05-13T03:09:01.132Z,12.40
2023-05-13T03:11:28.101Z,12.40
2023-05-13T03:13:54.939Z,12.30
2023-05-13T03:16:22.137Z,12.30
2023-05-13T03:18:49.081Z,12.20
2023-05-13T03:21:16.250Z,12.20
2023-05-13T03:23:44.409Z,12.20
2023-05-13T03:26:11.544Z,12.20
2023-05-13T03:28:38.339Z,12.20
2023-05-13T03:31:05.997Z,12.20
2023-05-13T03:33:33.195Z,12.30
2023-05-13T03:36:01.221Z,12.20
2023-05-13T03:38:28.150Z,12.30
2023-05-13T03:40:56.900Z,12.30
2023-05-13T03:43:23.917Z,12.30
2023-05-13T03:45:52.052Z,12.30
2023-05-13T03:48:18.955Z,12.30
2023-05-13T03:50:46.139Z,12.30
2023-05-13T03:53:13.049Z,12.30
2023-05-13T03:55:40.246Z,12.30
2023-05-13T03:58:15.270Z,12.40
2023-05-13T04:00:43.629Z,12.30
2023-05-13T04:03:10.569Z,12.30
2023-05-13T04:05:37.787Z,12.40
2023-05-13T04:08:05.164Z,12.30
2023-05-13T04:10:31.934Z,12.30
2023-05-13T04:12:59.103Z,12.30
2023-05-13T04:15:27.239Z,12.30
2023-05-13T04:17:54.481Z,12.20
2023-05-13T04:20:21.552Z,12.20
2023-05-13T04:22:48.993Z,12.20
2023-05-13T04:25:15.973Z,12.20
2023-05-13T04:27:43.262Z,12.20
2023-05-13T04:30:10.986Z,12.30
2023-05-13T04:32:39.777Z,12.30
2023-05-13T04:35:07.546Z,12.30
2023-05-13T04:37:34.740Z,12.40
2023-05-13T04:40:01.552Z,12.40
2023-05-13T04:42:28.876Z,12.50
2023-05-13T04:44:55.847Z,12.50
2023-05-13T04:47:23.165Z,12.60
2023-05-13T04:49:51.515Z,12.60
2023-05-13T04:52:19.895Z,12.70
2023-05-13T04:54:46.759Z,12.70
2023-05-13T04:57:14.002Z,12.80
2023-05-13T04:59:41.032Z,12.80
2023-05-13T05:02:08.143Z,12.80
2023-05-13T05:04:35.266Z,12.80
2023-05-13T05:07:03.426Z,12.90
2023-05-13T05:09:30.535Z,12.90
2023-05-13T05:11:57.313Z,12.90
2023-05-13T05:14:24.171Z,13.00
2023-05-13T05:16:51.174Z,13.00
2023-05-13T05:19:24.005Z,13.10
2023-05-13T05:21:51.129Z,13.10
2023-05-13T05:24:19.856Z,13.20
2023-05-13T05:26:46.653Z,13.20
2023-05-13T05:29:13.924Z,13.20
2023-05-13T05:31:40.972Z,13.30
2023-05-13T05:34:07.982Z,13.30
2023-05-13T05:36:36.629Z,13.40
2023-05-13T05:39:05.271Z,13.50
2023-05-13T05:41:33.753Z,13.50
2023-05-13T05:44:00.964Z,13.60
2023-05-13T05:46:28.176Z,13.70
2023-05-13T05:48:55.502Z,13.70
2023-05-13T05:51:22.284Z,13.80
2023-05-13T05:53:49.496Z,13.90
2023-05-13T05:56:16.290Z,14.00
2023-05-13T05:58:44.806Z,14.10
2023-05-13T06:01:11.604Z,14.20
2023-05-13T06:03:38.964Z,14.30
2023-05-13T06:06:06.161Z,14.30
2023-05-13T06:08:33.409Z,14.40
2023-05-13T06:11:00.376Z,14.50
2023-05-13T06:13:27.616Z,14.50
2023-05-13T06:15:55.887Z,14.50
2023-05-13T06:18:23.295Z,14.60
2023-05-13T06:20:50.202Z,14.60
2023-05-13T06:23:17.398Z,14.70
2023-05-13T06:25:44.178Z,14.70
2023-05-13T06:28:12.388Z,14.60
2023-05-13T06:30:39.321Z,14.70
2023-05-13T06:33:10.648Z,14.80
2023-05-13T06:35:37.937Z,14.90
2023-05-13T06:38:05.205Z,15.00
2023-05-13T06:40:32.081Z,15.10
2023-05-13T06:42:58.908Z,15.10
2023-05-13T06:45:26.203Z,15.20
2023-05-13T06:47:53.527Z,15.30
2023-05-13T06:50:22.174Z,15.40
2023-05-13T06:52:49.566Z,15.40
2023-05-13T06:55:19.808Z,15.60
2023-05-13T06:57:48.476Z,15.70
2023-05-13T07:00:16.203Z,15.80
2023-05-13T07:02:43.978Z,15.90
2023-05-13T07:05:12.302Z,16.00
2023-05-13T07:07:41.025Z,16.10
2023-05-13T07:10:08.481Z,16.20
2023-05-13T07:12:35.753Z,16.30
2023-05-13T07:15:02.737Z,16.40
2023-05-13T07:17:31.621Z,16.50
2023-05-13T07:19:59.093Z,16.50
2023-05-13T07:22:26.279Z,16.60
2023-05-13T07:24:56.480Z,16.70
2023-05-13T07:27:23.799Z,16.80
2023-05-13T07:29:50.648Z,16.80
2023-05-13T07:32:18.281Z,16.90
2023-05-13T07:34:45.132Z,17.10
2023-05-13T07:37:12.339Z,17.20
2023-05-13T07:39:39.369Z,17.40
2023-05-13T07:42:08.331Z,17.50
2023-05-13T07:44:35.222Z,17.60
2023-05-13T07:47:02.391Z,17.70
2023-05-13T07:49:29.347Z,17.80
2023-05-13T07:51:57.226Z,18.00
2023-05-13T07:54:24.083Z,18.00
2023-05-13T07:56:51.240Z,18.10
2023-05-13T07:59:19.783Z,18.30
2023-05-13T08:01:47.121Z,18.30
2023-05-13T08:04:14.098Z,18.20
2023-05-13T08:06:41.452Z,18.20
2023-05-13T08:09:12.118Z,18.20
2023-05-13T08:11:39.545Z,18.30
2023-05-13T08:14:06.511Z,18.30
2023-05-13T08:16:37.207Z,18.40
2023-05-13T08:19:04.940Z,18.40
2023-05-13T08:21:32.929Z,18.40
2023-05-13T08:23:59.843Z,18.40
2023-05-13T08:26:27.140Z,18.50
2023-05-13T08:28:54.973Z,18.60
2023-05-13T08:31:24.611Z,18.60
2023-05-13T08:33:53.316Z,18.60
2023-05-13T08:36:21.936Z,18.60
2023-05-13T08:38:48.869Z,18.80
2023-05-13T08:41:15.932Z,18.90
2023-05-13T08:43:46.156Z,18.90
2023-05-13T08:46:16.517Z,19.00
2023-05-13T08:48:44.309Z,19.00
2023-05-13T08:51:13.023Z,19.10
2023-05-13T08:53:41.735Z,19.10
2023-05-13T08:56:09.691Z,19.20
2023-05-13T08:58:36.889Z,19.30
2023-05-13T09:01:06.444Z,19.30
2023-05-13T09:03:35.149Z,19.40
2023-05-13T09:06:02.482Z,19.50
2023-05-13T09:08:33.033Z,19.50
2023-05-13T09:11:00.830Z,19.60
2023-05-13T09:13:27.635Z,19.60
2023-05-13T09:15:54.969Z,19.70
2023-05-13T09:18:22.547Z,19.80
2023-05-13T09:20:49.445Z,19.70
2023-05-13T09:23:17.466Z,19.80
2023-05-13T09:25:45.724Z,19.80
2023-05-13T09:28:15.708Z,19.80
2023-05-13T09:30:46.229Z,19.80
2023-05-13T09:33:15.586Z,19.90
2023-05-13T09:35:44.096Z,20.00
2023-05-13T09:38:16.461Z,20.00
2023-05-13T09:40:51.754Z,20.00
2023-05-13T09:43:19.803Z,20.20
2023-05-13T09:45:46.626Z,20.20
2023-05-13T09:48:14.463Z,20.20
2023-05-13T09:50:48.705Z,20.30
2023-05-13T09:53:15.697Z,20.30
2023-05-13T09:55:46.682Z,20.30
2023-05-13T09:58:15.878Z,20.40
2023-05-13T10:00:44.266Z,20.40
2023-05-13T10:03:11.993Z,20.40
2023-05-13T10:05:40.062Z,20.30
2023-05-13T10:08:09.482Z,20.20
2023-05-13T10:10:36.962Z,20.10
2023-05-13T10:13:06.690Z,20.10
2023-05-13T10:15:35.152Z,20.20
2023-05-13T10:18:03.682Z,20.20
2023-05-13T10:20:32.342Z,20.20
2023-05-13T10:22:59.600Z,20.30
2023-05-13T10:25:28.127Z,20.40
2023-05-13T10:27:57.711Z,20.50
2023-05-13T10:30:26.951Z,20.60
2023-05-13T10:32:55.206Z,20.70
2023-05-13T10:35:24.279Z,20.70
2023-05-13T10:38:02.859Z,20.70
2023-05-13T10:40:55.842Z,20.80
2023-05-13T10:43:26.319Z,20.80
2023-05-13T10:45:57.862Z,21.00
2023-05-13T10:48:26.765Z,21.20
2023-05-13T10:50:55.919Z,21.30
2023-05-13T10:53:24.557Z,21.50
2023-05-13T10:55:56.865Z,21.50
2023-05-13T10:58:29.800Z,21.50
2023-05-13T11:01:14.385Z,21.70
2023-05-13T11:03:54.353Z,21.70
2023-05-13T11:06:23.501Z,21.70
2023-05-13T11:08:54.274Z,21.70
2023-05-13T11:11:33.373Z,22.00
2023-05-13T11:14:15.020Z,22.10
2023-05-13T11:16:46.622Z,22.30
2023-05-13T11:19:21.899Z,22.50
2023-05-13T11:21:52.931Z,22.80
2023-05-13T11:24:22.011Z,23.00
2023-05-13T11:26:51.090Z,23.10
2023-05-13T11:29:30.094Z,23.20
2023-05-13T11:32:00.962Z,23.10
2023-05-13T11:34:30.701Z,22.90
2023-05-13T11:37:07.786Z,23.40
2023-05-13T11:39:35.390Z,24.10
2023-05-13T11:42:06.509Z,24.80
2023-05-13T11:44:35.264Z,25.50
2023-05-13T11:47:05.828Z,25.70
2023-05-13T11:49:39.437Z,25.20
2023-05-13T11:52:09.036Z,24.90
2023-05-13T11:54:44.280Z,25.40
2023-05-13T11:57:22.171Z,26.20
2023-05-13T11:59:54.658Z,26.90
2023-05-13T12:02:22.447Z,27.30
2023-05-13T12:04:51.801Z,27.40
2023-05-13T12:07:23.894Z,27.80
2023-05-13T12:09:51.249Z,28.20
2023-05-13T12:12:19.870Z,28.60
2023-05-13T12:14:47.324Z,28.90
2023-05-13T12:17:14.714Z,29.00
2023-05-13T12:20:07.401Z,29.20
2023-05-13T12:22:35.478Z,30.20
2023-05-13T12:25:42.713Z,30.50
2023-05-13T12:28:12.981Z,31.20
2023-05-13T12:30:41.789Z,32.10
2023-05-13T12:33:13.824Z,31.40
2023-05-13T12:35:42.647Z,31.60
2023-05-13T12:38:16.058Z,31.00
2023-05-13T12:40:43.420Z,31.40
2023-05-13T12:43:12.156Z,31.80
2023-05-13T12:45:44.008Z,31.90
2023-05-13T12:48:12.222Z,32.70
2023-05-13T12:50:39.060Z,32.90
2023-05-13T12:53:07.503Z,33.00
2023-05-13T12:55:39.738Z,33.50
2023-05-13T12:58:11.394Z,33.90
2023-05-13T13:00:38.294Z,34.20
2023-05-13T13:03:06.238Z,34.50
2023-05-13T13:05:33.543Z,35.00
2023-05-13T13:08:01.724Z,35.10
2023-05-13T13:10:29.957Z,34.40
2023-05-13T13:12:57.130Z,33.60
2023-05-13T13:15:24.009Z,34.00
2023-05-13T13:17:51.273Z,34.10
2023-05-13T13:20:18.049Z,34.50
2023-05-13T13:22:45.231Z,34.80
2023-05-13T13:25:12.181Z,35.10
2023-05-13T13:27:40.614Z,34.80
2023-05-13T13:30:08.666Z,35.00
2023-05-13T13:32:36.372Z,35.00
2023-05-13T13:35:05.466Z,35.20
2023-05-13T13:37:32.631Z,35.30
2023-05-13T13:39:59.573Z,34.60
2023-05-13T13:42:36.775Z,34.70
2023-05-13T13:45:12.506Z,34.90
2023-05-13T13:47:39.829Z,35.30
2023-05-13T13:50:07.214Z,35.20
2023-05-13T13:52:34.425Z,35.20
2023-05-13T13:55:01.270Z,34.90
2023-05-13T13:57:28.490Z,35.10
2023-05-13T13:59:55.346Z,35.00
2023-05-13T14:02:23.922Z,35.50
2023-05-13T14:04:50.900Z,35.60
2023-05-13T14:07:18.163Z,35.40
2023-05-13T14:09:45.060Z,35.70
2023-05-13T14:12:12.200Z,36.10
2023-05-13T14:14:38.961Z,35.70
2023-05-13T14:17:06.150Z,34.10
2023-05-13T14:19:34.345Z,32.20
2023-05-13T14:22:01.716Z,30.20
2023-05-13T14:24:28.564Z,28.70
2023-05-13T14:26:55.496Z,27.70
2023-05-13T14:29:22.653Z,27.70
2023-05-13T14:31:49.921Z,29.00
2023-05-13T14:34:17.469Z,29.80
2023-05-13T14:36:45.848Z,30.70
2023-05-13T14:39:13.002Z,31.70
2023-05-13T14:41:40.953Z,31.50
2023-05-13T14:44:08.077Z,29.80
2023-05-13T14:46:38.141Z,28.00
2023-05-13T14:49:05.321Z,26.70
2023-05-13T14:51:32.225Z,26.60
2023-05-13T14:54:00.890Z,28.00
2023-05-13T14:56:27.764Z,29.20
2023-05-13T14:58:55.031Z,29.40
2023-05-13T15:01:21.969Z,30.10
2023-05-13T15:03:49.237Z,30.90
2023-05-13T15:06:16.101Z,31.60
2023-05-13T15:08:43.213Z,31.40
2023-05-13T15:11:11.370Z,31.00
2023-05-13T15:13:39.490Z,30.80
2023-05-13T15:16:06.997Z,30.70
2023-05-13T15:18:34.352Z,30.50
2023-05-13T15:21:01.426Z,31.00
2023-05-13T15:23:29.108Z,31.70
2023-05-13T15:25:58.096Z,32.50
2023-05-13T15:28:26.894Z,32.70
2023-05-13T15:30:53.760Z,32.60
2023-05-13T15:33:20.946Z,32.50
2023-05-13T15:35:47.824Z,32.50
2023-05-13T15:38:15.000Z,32.40
2023-05-13T15:40:41.758Z,32.20
2023-05-13T15:43:08.775Z,32.00
2023-05-13T15:45:37.258Z,32.30
2023-05-13T15:48:04.616Z,31.90
2023-05-13T15:50:32.221Z,32.00
2023-05-13T15:52:59.160Z,32.20
2023-05-13T15:55:26.501Z,32.40
2023-05-13T15:57:53.385Z,32.40
2023-05-13T16:00:21.020Z,32.30
2023-05-13T16:02:49.447Z,32.30
2023-05-13T16:05:19.686Z,32.10
2023-05-13T16:07:46.557Z,32.00
2023-05-13T16:10:13.801Z,32.30
2023-05-13T16:12:40.946Z,32.00
2023-05-13T16:15:09.262Z,31.00
2023-05-13T16:17:36.071Z,30.90
2023-05-13T16:20:05.280Z,29.80
2023-05-13T16:22:34.145Z,29.90
2023-05-13T16:25:02.807Z,30.30
2023-05-13T16:27:29.873Z,30.60
2023-05-13T16:29:57.746Z,30.80
2023-05-13T16:32:25.117Z,30.80
2023-05-13T16:34:52.683Z,31.10
2023-05-13T16:37:20.956Z,31.00
2023-05-13T16:39:48.342Z,30.90
2023-05-13T16:42:15.952Z,30.80
2023-05-13T16:44:43.048Z,30.50
2023-05-13T16:47:09.896Z,30.20
2023-05-13T16:49:37.112Z,29.50
2023-05-13T16:52:04.594Z,29.30
2023-05-13T16:54:33.345Z,28.60
2023-05-13T16:57:01.087Z,28.30
2023-05-13T16:59:28.818Z,28.00
2023-05-13T17:01:55.888Z,27.10
2023-05-13T17:04:23.166Z,26.30
2023-05-13T17:06:50.079Z,25.60
2023-05-13T17:09:17.402Z,25.30
2023-05-13T17:11:46.166Z,24.80
2023-05-13T17:14:13.291Z,24.70
2023-05-13T17:16:41.920Z,24.50
2023-05-13T17:19:09.490Z,24.30
2023-05-13T17:21:36.466Z,24.10
2023-05-13T17:24:03.981Z,23.90
2023-05-13T17:26:31.072Z,23.60
2023-05-13T17:29:00.237Z,23.50
2023-05-13T17:31:27.382Z,23.30
2023-05-13T17:33:54.780Z,23.30
2023-05-13T17:36:22.022Z,23.20
2023-05-13T17:38:50.114Z,23.10
2023-05-13T17:41:16.873Z,22.90
2023-05-13T17:43:44.073Z,22.70
2023-05-13T17:46:12.283Z,22.60
2023-05-13T17:48:39.529Z,22.50
2023-05-13T17:51:06.503Z,22.30
2023-05-13T17:53:35.038Z,22.10
2023-05-13T17:56:02.178Z,22.00
2023-05-13T17:58:29.418Z,21.80
2023-05-13T18:00:56.229Z,21.70
2023-05-13T18:03:24.773Z,21.60
2023-05-13T18:05:51.626Z,21.50
2023-05-13T18:08:18.847Z,21.50
2023-05-13T18:10:46.662Z,21.40
2023-05-13T18:13:13.958Z,21.40
2023-05-13T18:15:40.990Z,21.30
2023-05-13T18:18:08.178Z,21.20
2023-05-13T18:20:36.291Z,21.10
2023-05-13T18:23:03.549Z,21.10
2023-05-13T18:25:32.177Z,21.00
2023-05-13T18:27:59.809Z,21.00
2023-05-13T18:30:26.604Z,20.90
2023-05-13T18:32:53.832Z,20.80
2023-05-13T18:35:21.425Z,20.90
2023-05-13T18:37:49.720Z,20.80
2023-05-13T18:40:16.966Z,20.70
2023-05-13T18:42:44.234Z,20.60
2023-05-13T18:45:11.576Z,20.50
2023-05-13T18:47:38.673Z,20.40
2023-05-13T18:50:06.220Z,20.40
2023-05-13T18:52:33.608Z,20.30
2023-05-13T18:55:04.520Z,20.20
2023-05-13T18:57:31.865Z,20.10
2023-05-13T18:59:58.745Z,20.00
2023-05-13T19:02:26.231Z,19.90
2023-05-13T19:04:53.350Z,19.90
2023-05-13T19:07:20.144Z,19.70
2023-05-13T19:09:48.674Z,19.60
2023-05-13T19:12:16.895Z,19.60
2023-05-13T19:14:44.081Z,19.50
2023-05-13T19:17:11.176Z,19.40
2023-05-13T19:19:38.290Z,19.40
2023-05-13T19:22:05.203Z,19.30
2023-05-13T19:24:32.226Z,19.10
2023-05-13T19:26:59.098Z,19.00
2023-05-13T19:29:27.604Z,19.00
2023-05-13T19:31:54.382Z,18.90
2023-05-13T19:34:21.573Z,18.90
2023-05-13T19:36:48.430Z,18.90
2023-05-13T19:39:15.705Z,18.90
2023-05-13T19:41:42.591Z,18.80
2023-05-13T19:44:09.788Z,18.70
2023-05-13T19:46:37.953Z,18.60
2023-05-13T19:49:05.165Z,18.50
2023-05-13T19:51:32.503Z,18.50
2023-05-13T19:53:59.614Z,18.40
2023-05-13T19:56:26.439Z,18.30
2023-05-13T19:58:53.694Z,18.20
2023-05-13T20:01:20.698Z,18.10
2023-05-13T20:03:49.403Z,18.10
2023-05-13T20:06:16.508Z,18.00
2023-05-13T20:08:43.718Z,17.90
2023-05-13T20:11:10.491Z,17.90
2023-05-13T20:13:37.620Z,17.90
2023-05-13T20:16:04.406Z,17.80
2023-05-13T20:18:31.651Z,17.80
2023-05-13T20:20:59.960Z,17.80
2023-05-13T20:23:27.258Z,17.70
2023-05-13T20:25:54.216Z,17.50
2023-05-13T20:28:21.596Z,17.50
2023-05-13T20:30:54.766Z,17.50
2023-05-13T20:33:22.031Z,17.50
2023-05-13T20:35:49.006Z,17.50
2023-05-13T20:38:17.899Z,17.40
2023-05-13T20:40:45.044Z,17.40
2023-05-13T20:43:12.479Z,17.30
2023-05-13T20:45:39.830Z,17.30
2023-05-13T20:48:08.052Z,17.30
2023-05-13T20:50:37.340Z,17.20
2023-05-13T20:53:04.442Z,17.10
2023-05-13T20:55:32.714Z,17.10
2023-05-13T20:57:59.551Z,17.10
2023-05-13T21:00:26.938Z,17.00
2023-05-13T21:02:53.888Z,17.00
2023-05-13T21:05:21.471Z,17.00
2023-05-13T21:07:48.415Z,17.00
2023-05-13T21:10:16.516Z,17.00
2023-05-13T21:12:47.629Z,16.90
2023-05-13T21:15:15.665Z,16.90
2023-05-13T21:17:42.638Z,16.80
2023-05-13T21:20:12.002Z,16.70
2023-05-13T21:22:38.827Z,16.70
2023-05-13T21:25:08.642Z,16.60
2023-05-13T21:27:35.420Z,16.60
2023-05-13T21:30:04.297Z,16.50
2023-05-13T21:32:31.173Z,16.50
2023-05-13T21:34:58.376Z,16.50
2023-05-13T21:37:26.554Z,16.40
2023-05-13T21:39:53.753Z,16.40
2023-05-13T21:42:21.054Z,16.40
2023-05-13T21:44:48.586Z,16.30
2023-05-13T21:47:16.650Z,16.30
2023-05-13T21:49:44.285Z,16.20
2023-05-13T21:52:11.107Z,16.20
2023-05-13T21:54:38.270Z,16.10
2023-05-13T21:57:05.568Z,16.00
2023-05-13T21:59:32.756Z,16.00
2023-05-13T22:01:59.571Z,16.00
2023-05-13T22:04:28.165Z,15.90
2023-05-13T22:06:55.048Z,15.90
2023-05-13T22:09:22.307Z,15.80
2023-05-13T22:11:49.123Z,15.80
2023-05-13T22:14:16.253Z,15.80
2023-05-13T22:16:43.099Z,15.80
2023-05-13T22:19:10.472Z,15.70
2023-05-13T22:21:38.673Z,15.70
2023-05-13T22:24:06.643Z,15.70
2023-05-13T22:26:33.614Z,15.60
2023-05-13T22:29:00.926Z,15.60
2023-05-13T22:31:27.743Z,15.50
2023-05-13T22:33:54.953Z,15.40
2023-05-13T22:36:21.812Z,15.40
2023-05-13T22:38:51.347Z,15.30
2023-05-13T22:41:20.656Z,15.30
2023-05-13T22:43:47.687Z,15.40
2023-05-13T22:46:14.662Z,15.40
2023-05-13T22:48:41.665Z,15.40
2023-05-13T22:51:08.721Z,15.40
2023-05-13T22:53:35.902Z,15.40
2023-05-13T22:56:04.587Z,15.40
2023-05-13T22:58:31.730Z,15.30
2023-05-13T23:00:58.426Z,15.30
2023-05-13T23:03:25.374Z,15.30
2023-05-13T23:05:52.152Z,15.20
2023-05-13T23:08:19.428Z,15.20
2023-05-13T23:10:46.509Z,15.10
2023-05-13T23:13:15.042Z,15.00
2023-05-13T23:15:41.948Z,15.00
2023-05-13T23:18:09.194Z,15.00
2023-05-13T23:20:36.421Z,15.00
2023-05-13T23:23:03.796Z,15.00
2023-05-13T23:25:31.365Z,14.90
2023-05-13T23:27:58.582Z,14.90
2023-05-13T23:30:26.689Z,14.90
2023-05-13T23:32:53.842Z,14.90
2023-05-13T23:35:20.794Z,14.90
2023-05-13T23:37:48.054Z,14.90
2023-05-13T23:40:15.596Z,14.90
2023-05-13T23:42:43.470Z,14.80
2023-05-13T23:45:11.392Z,14.80
2023-05-13T23:47:40.158Z,14.80
2023-05-13T23:50:08.014Z,14.80
2023-05-13T23:52:35.235Z,14.70
2023-05-13T23:55:03.400Z,14.70
2023-05-13T23:57:31.296Z,14.60
2023-05-13T23:59:58.228Z,14.60
